sensor_id;sensor_type;location;lat;lon;timestamp;pressure;altitude;pressure_sealevel;temperature;humidity
31681;BME280;18281;51.364;9.566;2023-06-19T00:00:00;99496.88;;;18.19;79.70
31681;BME280;18281;51.364;9.566;2023-06-19T00:02:46;99493.75;;;18.23;79.36
31681;BME280;18281;51.364;9.566;2023-06-19T00:05:12;99497.59;;;18.39;79.14
31681;BME280;18281;51.364;9.566;2023-06-19T00:07:39;99499.94;;;18.14;80.21
31681;BME280;18281;51.364;9.566;2023-06-19T00:10:12;99503.31;;;18.16;79.93
31681;BME280;18281;51.364;9.566;2023-06-19T00:12:51;99506.34;;;18.21;79.91
31681;BME280;18281;51.364;9.566;2023-06-19T00:16:03;99496.88;;;18.09;80.71
31681;BME280;18281;51.364;9.566;2023-06-19T00:19:08;99497.22;;;17.86;81.47
31681;BME280;18281;51.364;9.566;2023-06-19T00:21:56;99493.81;;;18.04;80.26
31681;BME280;18281;51.364;9.566;2023-06-19T00:25:12;99499.38;;;17.73;81.11
31681;BME280;18281;51.364;9.566;2023-06-19T00:28:24;99487.81;;;18.02;80.54
31681;BME280;18281;51.364;9.566;2023-06-19T00:31:08;99491.84;;;18.06;80.08
31681;BME280;18281;51.364;9.566;2023-06-19T00:33:49;99495.34;;;17.69;80.47
31681;BME280;18281;51.364;9.566;2023-06-19T00:36:26;99499.63;;;17.80;80.56
31681;BME280;18281;51.364;9.566;2023-06-19T00:38:55;99492.19;;;17.93;80.29
31681;BME280;18281;51.364;9.566;2023-06-19T00:41:24;99496.97;;;17.80;80.87
31681;BME280;18281;51.364;9.566;2023-06-19T00:43:57;99496.06;;;17.61;82.07
31681;BME280;18281;51.364;9.566;2023-06-19T00:46:37;99502.25;;;17.52;81.19
31681;BME280;18281;51.364;9.566;2023-06-19T00:49:05;99506.66;;;17.71;81.45
31681;BME280;18281;51.364;9.566;2023-06-19T00:51:37;99496.66;;;17.92;79.88
31681;BME280;18281;51.364;9.566;2023-06-19T00:54:10;99512.13;;;17.69;81.62
31681;BME280;18281;51.364;9.566;2023-06-19T00:56:37;99505.44;;;17.55;82.35
31681;BME280;18281;51.364;9.566;2023-06-19T00:59:29;99502.22;;;17.62;82.15
31681;BME280;18281;51.364;9.566;2023-06-19T01:02:03;99497.97;;;17.79;82.17
31681;BME280;18281;51.364;9.566;2023-06-19T04:34:51;99449.50;;;17.76;83.28
31681;BME280;18281;51.364;9.566;2023-06-19T04:37:16;99441.69;;;17.75;83.02
31681;BME280;18281;51.364;9.566;2023-06-19T04:39:46;99450.91;;;17.71;83.47
31681;BME280;18281;51.364;9.566;2023-06-19T04:42:22;99453.53;;;17.81;82.30
31681;BME280;18281;51.364;9.566;2023-06-19T04:44:53;99457.47;;;17.76;82.19
31681;BME280;18281;51.364;9.566;2023-06-19T04:47:31;99463.47;;;17.79;82.21
31681;BME280;18281;51.364;9.566;2023-06-19T04:49:56;99462.56;;;17.88;81.58
31681;BME280;18281;51.364;9.566;2023-06-19T04:52:29;99468.59;;;17.90;81.35
31681;BME280;18281;51.364;9.566;2023-06-19T04:54:58;99467.16;;;17.96;81.21
31681;BME280;18281;51.364;9.566;2023-06-19T04:57:23;99463.91;;;18.02;81.06
31681;BME280;18281;51.364;9.566;2023-06-19T04:59:48;99469.53;;;17.99;81.52
31681;BME280;18281;51.364;9.566;2023-06-19T05:02:14;99465.00;;;18.09;80.75
31681;BME280;18281;51.364;9.566;2023-06-19T05:04:40;99471.59;;;18.05;80.99
31681;BME280;18281;51.364;9.566;2023-06-19T05:07:11;99476.59;;;18.08;81.17
31681;BME280;18281;51.364;9.566;2023-06-19T05:09:38;99480.53;;;18.04;81.19
31681;BME280;18281;51.364;9.566;2023-06-19T05:12:06;99484.47;;;18.00;81.66
31681;BME280;18281;51.364;9.566;2023-06-19T05:14:32;99490.47;;;18.02;81.81
31681;BME280;18281;51.364;9.566;2023-06-19T05:16:57;99491.69;;;18.07;82.21
31681;BME280;18281;51.364;9.566;2023-06-19T05:19:22;99495.75;;;18.12;82.39
31681;BME280;18281;51.364;9.566;2023-06-19T05:21:48;99507.78;;;18.16;81.73
31681;BME280;18281;51.364;9.566;2023-06-19T05:24:13;99514.34;;;18.12;82.24
31681;BME280;18281;51.364;9.566;2023-06-19T05:26:39;99514.22;;;18.13;82.51
31681;BME280;18281;51.364;9.566;2023-06-19T05:29:04;99517.28;;;18.08;83.29
31681;BME280;18281;51.364;9.566;2023-06-19T05:31:33;99526.38;;;18.06;83.51
31681;BME280;18281;51.364;9.566;2023-06-19T05:33:58;99519.78;;;18.10;84.27
31681;BME280;18281;51.364;9.566;2023-06-19T05:36:24;99522.72;;;18.17;83.47
31681;BME280;18281;51.364;9.566;2023-06-19T05:38:49;99530.69;;;18.17;83.53
31681;BME280;18281;51.364;9.566;2023-06-19T05:41:15;99529.88;;;18.16;84.06
31681;BME280;18281;51.364;9.566;2023-06-19T05:43:41;99531.94;;;18.13;84.50
31681;BME280;18281;51.364;9.566;2023-06-19T05:46:06;99540.06;;;18.11;84.32
31681;BME280;18281;51.364;9.566;2023-06-19T05:48:32;99536.59;;;18.01;84.84
31681;BME280;18281;51.364;9.566;2023-06-19T05:51:00;99538.75;;;17.87;86.61
31681;BME280;18281;51.364;9.566;2023-06-19T05:53:25;99543.50;;;17.93;85.72
31681;BME280;18281;51.364;9.566;2023-06-19T05:56:17;99536.91;;;17.98;86.05
31681;BME280;18281;51.364;9.566;2023-06-19T05:58:43;99533.69;;;17.94;85.58
31681;BME280;18281;51.364;9.566;2023-06-19T06:01:08;99538.59;;;17.99;88.57
31681;BME280;18281;51.364;9.566;2023-06-19T06:03:34;99541.34;;;18.07;86.58
31681;BME280;18281;51.364;9.566;2023-06-19T06:06:01;99542.50;;;17.94;88.01
31681;BME280;18281;51.364;9.566;2023-06-19T06:08:30;99546.41;;;18.00;86.20
31681;BME280;18281;51.364;9.566;2023-06-19T06:10:55;99548.34;;;17.98;87.09
31681;BME280;18281;51.364;9.566;2023-06-19T06:13:21;99553.09;;;17.94;87.47
31681;BME280;18281;51.364;9.566;2023-06-19T06:15:47;99554.53;;;17.89;89.64
31681;BME280;18281;51.364;9.566;2023-06-19T06:18:12;99553.56;;;17.90;91.35
31681;BME280;18281;51.364;9.566;2023-06-19T06:20:38;99555.03;;;18.12;87.88
31681;BME280;18281;51.364;9.566;2023-06-19T06:23:03;99554.19;;;18.12;87.12
31681;BME280;18281;51.364;9.566;2023-06-19T06:25:29;99561.41;;;18.29;85.29
31681;BME280;18281;51.364;9.566;2023-06-19T06:27:54;99556.34;;;18.36;86.57
31681;BME280;18281;51.364;9.566;2023-06-19T06:30:19;99552.47;;;18.30;88.00
31681;BME280;18281;51.364;9.566;2023-06-19T06:32:45;99566.72;;;18.29;86.45
31681;BME280;18281;51.364;9.566;2023-06-19T06:35:10;99564.16;;;18.37;86.32
31681;BME280;18281;51.364;9.566;2023-06-19T06:37:35;99564.22;;;18.27;87.87
31681;BME280;18281;51.364;9.566;2023-06-19T06:40:01;99573.81;;;18.38;88.36
31681;BME280;18281;51.364;9.566;2023-06-19T06:42:26;99565.03;;;18.38;89.92
31681;BME280;18281;51.364;9.566;2023-06-19T06:44:51;99564.47;;;18.34;91.72
31681;BME280;18281;51.364;9.566;2023-06-19T06:47:17;99567.91;;;18.17;93.89
31681;BME280;18281;51.364;9.566;2023-06-19T06:49:42;99572.50;;;18.15;94.50
31681;BME280;18281;51.364;9.566;2023-06-19T06:52:08;99582.66;;;18.29;95.82
31681;BME280;18281;51.364;9.566;2023-06-19T06:54:33;99573.97;;;18.37;96.06
31681;BME280;18281;51.364;9.566;2023-06-19T06:56:59;99571.81;;;18.50;95.60
31681;BME280;18281;51.364;9.566;2023-06-19T06:59:26;99569.13;;;18.78;93.65
31681;BME280;18281;51.364;9.566;2023-06-19T07:01:55;99565.72;;;18.86;90.83
31681;BME280;18281;51.364;9.566;2023-06-19T07:04:21;99568.78;;;19.27;84.00
31681;BME280;18281;51.364;9.566;2023-06-19T07:06:47;99560.44;;;19.40;80.62
31681;BME280;18281;51.364;9.566;2023-06-19T07:09:12;99551.69;;;19.30;81.06
31681;BME280;18281;51.364;9.566;2023-06-19T07:11:38;99554.19;;;19.49;80.14
31681;BME280;18281;51.364;9.566;2023-06-19T07:14:03;99559.56;;;19.75;78.60
31681;BME280;18281;51.364;9.566;2023-06-19T07:16:28;99569.91;;;19.79;78.61
31681;BME280;18281;51.364;9.566;2023-06-19T07:18:54;99562.97;;;19.94;77.34
31681;BME280;18281;51.364;9.566;2023-06-19T07:21:19;99562.56;;;20.07;75.63
31681;BME280;18281;51.364;9.566;2023-06-19T07:23:45;99559.94;;;20.15;75.29
31681;BME280;18281;51.364;9.566;2023-06-19T07:26:13;99561.84;;;20.31;75.28
31681;BME280;18281;51.364;9.566;2023-06-19T07:28:39;99569.28;;;20.46;75.10
31681;BME280;18281;51.364;9.566;2023-06-19T07:31:04;99563.44;;;20.50;75.09
31681;BME280;18281;51.364;9.566;2023-06-19T07:33:30;99563.16;;;20.62;75.10
31681;BME280;18281;51.364;9.566;2023-06-19T07:35:56;99568.19;;;20.73;74.51
31681;BME280;18281;51.364;9.566;2023-06-19T07:38:21;99572.53;;;20.82;73.72
31681;BME280;18281;51.364;9.566;2023-06-19T07:40:47;99568.06;;;20.83;73.61
31681;BME280;18281;51.364;9.566;2023-06-19T07:43:12;99571.91;;;20.97;73.21
31681;BME280;18281;51.364;9.566;2023-06-19T07:45:37;99577.97;;;21.07;73.13
31681;BME280;18281;51.364;9.566;2023-06-19T07:48:03;99578.81;;;21.24;73.36
31681;BME280;18281;51.364;9.566;2023-06-19T07:50:28;99571.66;;;21.33;73.45
31681;BME280;18281;51.364;9.566;2023-06-19T07:52:54;99578.66;;;21.42;72.95
31681;BME280;18281;51.364;9.566;2023-06-19T07:55:19;99575.00;;;21.43;73.00
31681;BME280;18281;51.364;9.566;2023-06-19T07:57:45;99576.81;;;21.67;72.40
31681;BME280;18281;51.364;9.566;2023-06-19T08:00:11;99578.97;;;21.64;71.94
31681;BME280;18281;51.364;9.566;2023-06-19T08:02:41;99577.19;;;21.72;71.49
31681;BME280;18281;51.364;9.566;2023-06-19T08:05:07;99588.16;;;21.77;71.55
31681;BME280;18281;51.364;9.566;2023-06-19T08:07:34;99581.34;;;21.83;71.09
31681;BME280;18281;51.364;9.566;2023-06-19T08:09:59;99580.31;;;21.84;71.45
31681;BME280;18281;51.364;9.566;2023-06-19T08:12:25;99578.66;;;21.91;71.14
31681;BME280;18281;51.364;9.566;2023-06-19T08:14:50;99584.63;;;22.10;71.46
31681;BME280;18281;51.364;9.566;2023-06-19T08:17:15;99588.94;;;22.11;71.87
31681;BME280;18281;51.364;9.566;2023-06-19T08:19:41;99584.72;;;22.25;71.56
31681;BME280;18281;51.364;9.566;2023-06-19T08:22:08;99578.38;;;22.18;71.24
31681;BME280;18281;51.364;9.566;2023-06-19T08:24:34;99581.56;;;22.21;72.06
31681;BME280;18281;51.364;9.566;2023-06-19T08:27:01;99580.84;;;22.44;71.57
31681;BME280;18281;51.364;9.566;2023-06-19T08:29:27;99567.75;;;22.57;71.17
31681;BME280;18281;51.364;9.566;2023-06-19T08:31:52;99578.47;;;22.49;70.78
31681;BME280;18281;51.364;9.566;2023-06-19T08:34:17;99570.91;;;22.61;71.27
31681;BME280;18281;51.364;9.566;2023-06-19T08:36:43;99565.47;;;22.77;70.92
31681;BME280;18281;51.364;9.566;2023-06-19T08:39:08;99562.66;;;22.94;71.34
31681;BME280;18281;51.364;9.566;2023-06-19T08:41:37;99566.16;;;23.03;71.22
31681;BME280;18281;51.364;9.566;2023-06-19T08:44:06;99575.69;;;23.05;72.59
31681;BME280;18281;51.364;9.566;2023-06-19T08:46:33;99576.50;;;23.06;72.04
31681;BME280;18281;51.364;9.566;2023-06-19T08:48:59;99574.50;;;23.08;71.96
31681;BME280;18281;51.364;9.566;2023-06-19T08:51:26;99580.19;;;23.05;71.36
31681;BME280;18281;51.364;9.566;2023-06-19T08:54:03;99583.13;;;23.18;71.27
31681;BME280;18281;51.364;9.566;2023-06-19T08:56:30;99582.78;;;23.21;71.38
31681;BME280;18281;51.364;9.566;2023-06-19T08:59:08;99583.00;;;23.35;71.73
31681;BME280;18281;51.364;9.566;2023-06-19T09:01:34;99577.94;;;23.40;71.46
31681;BME280;18281;51.364;9.566;2023-06-19T09:03:59;99580.19;;;23.51;71.89
31681;BME280;18281;51.364;9.566;2023-06-19T09:06:25;99568.50;;;23.67;71.78
31681;BME280;18281;51.364;9.566;2023-06-19T09:08:59;99578.63;;;23.80;71.78
31681;BME280;18281;51.364;9.566;2023-06-19T09:11:25;99580.47;;;23.95;71.63
31681;BME280;18281;51.364;9.566;2023-06-19T09:13:57;99583.41;;;24.00;72.03
31681;BME280;18281;51.364;9.566;2023-06-19T09:16:23;99581.94;;;24.12;71.96
31681;BME280;18281;51.364;9.566;2023-06-19T09:18:50;99585.28;;;24.14;71.94
31681;BME280;18281;51.364;9.566;2023-06-19T09:21:17;99572.63;;;24.23;71.67
31681;BME280;18281;51.364;9.566;2023-06-19T09:23:43;99583.16;;;24.09;70.92
31681;BME280;18281;51.364;9.566;2023-06-19T09:26:08;99571.88;;;24.14;70.43
31681;BME280;18281;51.364;9.566;2023-06-19T09:28:40;99570.88;;;24.15;70.10
31681;BME280;18281;51.364;9.566;2023-06-19T09:31:06;99573.19;;;24.33;70.44
31681;BME280;18281;51.364;9.566;2023-06-19T09:33:32;99566.41;;;24.37;69.84
31681;BME280;18281;51.364;9.566;2023-06-19T09:36:00;99573.72;;;24.43;69.55
31681;BME280;18281;51.364;9.566;2023-06-19T09:38:28;99566.66;;;24.57;69.98
31681;BME280;18281;51.364;9.566;2023-06-19T09:40:54;99573.59;;;24.67;69.90
31681;BME280;18281;51.364;9.566;2023-06-19T09:43:37;99569.50;;;24.71;70.13
31681;BME280;18281;51.364;9.566;2023-06-19T09:46:04;99565.50;;;24.45;70.10
31681;BME280;18281;51.364;9.566;2023-06-19T09:48:33;99561.03;;;24.52;70.66
31681;BME280;18281;51.364;9.566;2023-06-19T09:51:30;99570.19;;;24.58;69.73
31681;BME280;18281;51.364;9.566;2023-06-19T09:53:56;99564.84;;;24.58;69.31
31681;BME280;18281;51.364;9.566;2023-06-19T09:56:24;99574.31;;;24.75;69.83
31681;BME280;18281;51.364;9.566;2023-06-19T09:58:52;99576.22;;;24.82;69.86
31681;BME280;18281;51.364;9.566;2023-06-19T10:01:19;99582.19;;;24.77;69.26
31681;BME280;18281;51.364;9.566;2023-06-19T10:03:45;99574.09;;;24.92;69.62
31681;BME280;18281;51.364;9.566;2023-06-19T10:06:15;99576.84;;;24.99;68.67
31681;BME280;18281;51.364;9.566;2023-06-19T10:08:43;99571.56;;;25.05;69.25
31681;BME280;18281;51.364;9.566;2023-06-19T10:11:09;99574.25;;;25.05;69.37
31681;BME280;18281;51.364;9.566;2023-06-19T10:13:37;99574.50;;;25.11;69.96
31681;BME280;18281;51.364;9.566;2023-06-19T10:16:05;99571.88;;;24.96;69.25
31681;BME280;18281;51.364;9.566;2023-06-19T10:18:45;99571.09;;;25.02;68.38
31681;BME280;18281;51.364;9.566;2023-06-19T10:21:20;99563.25;;;25.00;68.80
31681;BME280;18281;51.364;9.566;2023-06-19T10:23:54;99569.38;;;25.16;68.95
31681;BME280;18281;51.364;9.566;2023-06-19T10:26:30;99569.38;;;25.37;67.76
31681;BME280;18281;51.364;9.566;2023-06-19T10:28:55;99568.59;;;25.00;68.28
31681;BME280;18281;51.364;9.566;2023-06-19T10:31:20;99568.94;;;25.12;67.91
31681;BME280;18281;51.364;9.566;2023-06-19T10:33:46;99565.22;;;25.13;67.93
31681;BME280;18281;51.364;9.566;2023-06-19T10:36:19;99571.47;;;25.20;66.99
31681;BME280;18281;51.364;9.566;2023-06-19T10:38:46;99573.97;;;25.43;67.89
31681;BME280;18281;51.364;9.566;2023-06-19T10:41:18;99580.47;;;25.28;67.24
31681;BME280;18281;51.364;9.566;2023-06-19T10:43:56;99581.59;;;25.40;66.72
31681;BME280;18281;51.364;9.566;2023-06-19T10:46:23;99577.38;;;25.31;65.93
31681;BME280;18281;51.364;9.566;2023-06-19T10:48:50;99579.72;;;25.40;66.66
31681;BME280;18281;51.364;9.566;2023-06-19T10:51:19;99580.47;;;25.49;66.66
31681;BME280;18281;51.364;9.566;2023-06-19T10:53:44;99574.94;;;25.57;66.67
31681;BME280;18281;51.364;9.566;2023-06-19T10:56:10;99570.72;;;25.76;66.27
31681;BME280;18281;51.364;9.566;2023-06-19T10:58:35;99572.69;;;25.89;66.61
31681;BME280;18281;51.364;9.566;2023-06-19T11:01:00;99575.28;;;25.76;65.62
31681;BME280;18281;51.364;9.566;2023-06-19T11:03:26;99569.25;;;25.74;65.27
31681;BME280;18281;51.364;9.566;2023-06-19T11:05:51;99579.84;;;25.82;65.43
31681;BME280;18281;51.364;9.566;2023-06-19T11:08:21;99579.94;;;25.96;65.39
31681;BME280;18281;51.364;9.566;2023-06-19T11:10:47;99579.53;;;25.92;63.81
31681;BME280;18281;51.364;9.566;2023-06-19T11:13:15;99587.94;;;25.82;63.57
31681;BME280;18281;51.364;9.566;2023-06-19T11:15:40;99580.56;;;25.91;62.39
31681;BME280;18281;51.364;9.566;2023-06-19T11:18:06;99595.06;;;25.97;62.49
31681;BME280;18281;51.364;9.566;2023-06-19T11:20:43;99591.88;;;26.08;62.53
31681;BME280;18281;51.364;9.566;2023-06-19T11:23:08;99591.59;;;26.03;62.46
31681;BME280;18281;51.364;9.566;2023-06-19T11:25:38;99584.53;;;26.02;62.30
31681;BME280;18281;51.364;9.566;2023-06-19T11:28:26;99591.56;;;25.96;61.97
31681;BME280;18281;51.364;9.566;2023-06-19T11:30:59;99592.94;;;25.85;62.50
31681;BME280;18281;51.364;9.566;2023-06-19T11:33:25;99584.28;;;25.62;62.86
31681;BME280;18281;51.364;9.566;2023-06-19T11:35:52;99589.25;;;25.65;62.61
31681;BME280;18281;51.364;9.566;2023-06-19T11:38:26;99588.97;;;25.81;62.98
31681;BME280;18281;51.364;9.566;2023-06-19T11:40:53;99586.91;;;25.83;62.37
31681;BME280;18281;51.364;9.566;2023-06-19T11:45:51;99593.19;;;25.90;62.59
31681;BME280;18281;51.364;9.566;2023-06-19T11:48:27;99591.91;;;26.15;62.18
31681;BME280;18281;51.364;9.566;2023-06-19T11:50:53;99588.69;;;26.33;61.80
31681;BME280;18281;51.364;9.566;2023-06-19T11:53:20;99582.31;;;26.47;62.65
31681;BME280;18281;51.364;9.566;2023-06-19T11:55:46;99595.44;;;26.22;62.05
31681;BME280;18281;51.364;9.566;2023-06-19T11:58:11;99592.31;;;26.18;61.45
31681;BME280;18281;51.364;9.566;2023-06-19T12:00:36;99588.28;;;26.42;61.10
31681;BME280;18281;51.364;9.566;2023-06-19T12:03:03;99588.38;;;26.14;62.00
31681;BME280;18281;51.364;9.566;2023-06-19T12:05:28;99592.22;;;26.40;62.37
31681;BME280;18281;51.364;9.566;2023-06-19T12:07:54;99600.47;;;26.32;62.74
31681;BME280;18281;51.364;9.566;2023-06-19T12:10:19;99594.91;;;26.40;62.30
31681;BME280;18281;51.364;9.566;2023-06-19T12:12:44;99589.69;;;26.32;62.25
31681;BME280;18281;51.364;9.566;2023-06-19T12:15:09;99596.59;;;26.48;61.90
31681;BME280;18281;51.364;9.566;2023-06-19T12:17:35;99589.28;;;26.70;62.44
31681;BME280;18281;51.364;9.566;2023-06-19T12:20:02;99584.34;;;26.80;61.89
31681;BME280;18281;51.364;9.566;2023-06-19T12:22:31;99581.81;;;26.72;62.31
31681;BME280;18281;51.364;9.566;2023-06-19T12:24:56;99591.38;;;26.81;62.47
31681;BME280;18281;51.364;9.566;2023-06-19T12:27:21;99595.47;;;26.64;61.91
31681;BME280;18281;51.364;9.566;2023-06-19T12:29:47;99597.84;;;26.52;60.96
31681;BME280;18281;51.364;9.566;2023-06-19T12:32:12;99589.75;;;26.45;61.41
31681;BME280;18281;51.364;9.566;2023-06-19T12:34:37;99591.84;;;26.43;60.88
31681;BME280;18281;51.364;9.566;2023-06-19T12:37:03;99590.41;;;26.47;61.13
31681;BME280;18281;51.364;9.566;2023-06-19T12:39:28;99585.81;;;26.41;60.57
31681;BME280;18281;51.364;9.566;2023-06-19T12:41:53;99587.97;;;26.59;60.84
31681;BME280;18281;51.364;9.566;2023-06-19T12:44:21;99597.56;;;26.68;60.71
31681;BME280;18281;51.364;9.566;2023-06-19T12:46:46;99592.16;;;26.62;60.86
31681;BME280;18281;51.364;9.566;2023-06-19T12:49:12;99594.63;;;26.63;60.28
31681;BME280;18281;51.364;9.566;2023-06-19T12:51:37;99588.56;;;26.54;60.47
31681;BME280;18281;51.364;9.566;2023-06-19T12:54:02;99597.03;;;26.51;60.77
31681;BME280;18281;51.364;9.566;2023-06-19T12:56:28;99595.19;;;26.58;60.20
31681;BME280;18281;51.364;9.566;2023-06-19T12:58:53;99593.56;;;26.57;60.87
31681;BME280;18281;51.364;9.566;2023-06-19T13:01:19;99601.59;;;26.51;60.15
31681;BME280;18281;51.364;9.566;2023-06-19T13:03:44;99601.28;;;26.67;62.52
31681;BME280;18281;51.364;9.566;2023-06-19T13:06:09;99596.75;;;26.33;63.94
31681;BME280;18281;51.364;9.566;2023-06-19T13:08:35;99593.13;;;26.12;66.06
31681;BME280;18281;51.364;9.566;2023-06-19T13:11:00;99602.44;;;26.09;66.12
31681;BME280;18281;51.364;9.566;2023-06-19T13:13:26;99595.25;;;26.23;64.70
31681;BME280;18281;51.364;9.566;2023-06-19T13:15:51;99594.13;;;26.46;63.72
31681;BME280;18281;51.364;9.566;2023-06-19T13:18:17;99593.56;;;26.57;63.19
31681;BME280;18281;51.364;9.566;2023-06-19T13:20:43;99590.41;;;26.47;64.87
31681;BME280;18281;51.364;9.566;2023-06-19T13:23:10;99590.13;;;26.35;65.40
31681;BME280;18281;51.364;9.566;2023-06-19T13:25:35;99594.00;;;26.19;65.83
31681;BME280;18281;51.364;9.566;2023-06-19T13:28:00;99581.41;;;26.33;65.88
31681;BME280;18281;51.364;9.566;2023-06-19T13:30:26;99587.88;;;26.39;65.71
31681;BME280;18281;51.364;9.566;2023-06-19T13:32:51;99584.84;;;26.55;65.75
31681;BME280;18281;51.364;9.566;2023-06-19T13:35:16;99584.25;;;26.60;65.54
31681;BME280;18281;51.364;9.566;2023-06-19T13:37:42;99598.06;;;26.50;65.76
31681;BME280;18281;51.364;9.566;2023-06-19T13:40:08;99599.91;;;26.43;66.99
31681;BME280;18281;51.364;9.566;2023-06-19T13:42:33;99594.09;;;26.39;66.87
31681;BME280;18281;51.364;9.566;2023-06-19T13:45:01;99592.16;;;26.62;66.65
31681;BME280;18281;51.364;9.566;2023-06-19T13:47:27;99588.56;;;26.54;67.09
31681;BME280;18281;51.364;9.566;2023-06-19T13:49:52;99594.66;;;26.70;67.18
31681;BME280;18281;51.364;9.566;2023-06-19T13:52:18;99586.59;;;26.77;66.54
31681;BME280;18281;51.364;9.566;2023-06-19T13:54:43;99591.81;;;26.85;65.56
31681;BME280;18281;51.364;9.566;2023-06-19T13:57:08;99588.28;;;26.78;65.11
31681;BME280;18281;51.364;9.566;2023-06-19T13:59:34;99588.28;;;26.78;64.26
31681;BME280;18281;51.364;9.566;2023-06-19T14:01:59;99586.41;;;26.85;64.13
31681;BME280;18281;51.364;9.566;2023-06-19T14:04:25;99586.44;;;26.91;62.63
31681;BME280;18281;51.364;9.566;2023-06-19T14:06:50;99583.75;;;26.91;62.85
31681;BME280;18281;51.364;9.566;2023-06-19T14:09:15;99591.03;;;27.04;63.69
31681;BME280;18281;51.364;9.566;2023-06-19T14:11:41;99593.28;;;27.01;62.18
31681;BME280;18281;51.364;9.566;2023-06-19T14:14:06;99596.00;;;27.14;62.64
31681;BME280;18281;51.364;9.566;2023-06-19T14:16:32;99593.03;;;26.82;60.97
31681;BME280;18281;51.364;9.566;2023-06-19T14:18:58;99594.47;;;26.71;59.64
31681;BME280;18281;51.364;9.566;2023-06-19T14:21:23;99594.03;;;26.68;59.18
31681;BME280;18281;51.364;9.566;2023-06-19T14:23:50;99590.53;;;26.74;59.44
31681;BME280;18281;51.364;9.566;2023-06-19T14:26:16;99591.56;;;26.80;60.05
31681;BME280;18281;51.364;9.566;2023-06-19T14:28:41;99592.19;;;26.75;59.79
31681;BME280;18281;51.364;9.566;2023-06-19T14:31:07;99586.69;;;26.48;60.29
31681;BME280;18281;51.364;9.566;2023-06-19T14:33:32;99595.47;;;26.64;60.68
31681;BME280;18281;51.364;9.566;2023-06-19T14:35:59;99599.97;;;26.56;61.49
31681;BME280;18281;51.364;9.566;2023-06-19T14:38:25;99593.56;;;26.57;61.93
31681;BME280;18281;51.364;9.566;2023-06-19T14:40:53;99589.88;;;26.72;62.19
31681;BME280;18281;51.364;9.566;2023-06-19T14:43:18;99595.91;;;26.67;61.91
31681;BME280;18281;51.364;9.566;2023-06-19T14:45:44;99595.47;;;26.64;62.16
31681;BME280;18281;51.364;9.566;2023-06-19T14:48:09;99594.16;;;26.59;62.18
31681;BME280;18281;51.364;9.566;2023-06-19T14:50:35;99590.72;;;26.24;61.64
31681;BME280;18281;51.364;9.566;2023-06-19T14:53:00;99590.88;;;26.57;61.42
31681;BME280;18281;51.364;9.566;2023-06-19T14:55:26;99584.72;;;26.77;61.83
31681;BME280;18281;51.364;9.566;2023-06-19T14:57:51;99589.50;;;26.75;61.65
31681;BME280;18281;51.364;9.566;2023-06-19T15:00:17;99581.03;;;26.85;62.09
31681;BME280;18281;51.364;9.566;2023-06-19T15:02:42;99578.56;;;26.90;62.21
31681;BME280;18281;51.364;9.566;2023-06-19T15:05:08;99573.34;;;26.75;61.57
31681;BME280;18281;51.364;9.566;2023-06-19T15:07:33;99570.72;;;27.02;61.68
31681;BME280;18281;51.364;9.566;2023-06-19T15:09:59;99567.88;;;27.23;62.28
31681;BME280;18281;51.364;9.566;2023-06-19T15:12:24;99572.34;;;27.09;62.52
31681;BME280;18281;51.364;9.566;2023-06-19T15:14:49;99561.63;;;27.16;62.18
31681;BME280;18281;51.364;9.566;2023-06-19T15:17:15;99565.34;;;27.15;62.03
31681;BME280;18281;51.364;9.566;2023-06-19T15:19:40;99563.09;;;27.25;62.00
31681;BME280;18281;51.364;9.566;2023-06-19T15:22:05;99576.97;;;27.29;62.54
31681;BME280;18281;51.364;9.566;2023-06-19T15:24:31;99571.16;;;27.25;62.87
31681;BME280;18281;51.364;9.566;2023-06-19T15:26:56;99567.66;;;27.18;62.76
31681;BME280;18281;51.364;9.566;2023-06-19T15:29:24;99570.94;;;27.14;62.93
31681;BME280;18281;51.364;9.566;2023-06-19T15:31:49;99556.25;;;27.30;62.51
31681;BME280;18281;51.364;9.566;2023-06-19T15:34:15;99559.34;;;27.33;62.54
31681;BME280;18281;51.364;9.566;2023-06-19T15:36:41;99568.91;;;27.22;62.40
31681;BME280;18281;51.364;9.566;2023-06-19T15:39:06;99567.44;;;27.20;62.38
31681;BME280;18281;51.364;9.566;2023-06-19T15:41:32;99565.34;;;27.08;62.38
31681;BME280;18281;51.364;9.566;2023-06-19T15:43:57;99573.63;;;27.14;62.55
31681;BME280;18281;51.364;9.566;2023-06-19T15:46:22;99576.13;;;27.15;62.60
31681;BME280;18281;51.364;9.566;2023-06-19T15:48:48;99569.91;;;27.21;63.49
31681;BME280;18281;51.364;9.566;2023-06-19T15:51:14;99573.44;;;27.15;63.89
31681;BME280;18281;51.364;9.566;2023-06-19T15:53:40;99564.91;;;27.05;64.31
31681;BME280;18281;51.364;9.566;2023-06-19T15:56:05;99573.22;;;27.10;64.38
31681;BME280;18281;51.364;9.566;2023-06-19T15:58:31;99569.47;;;26.98;63.95
31681;BME280;18281;51.364;9.566;2023-06-19T16:00:56;99566.13;;;26.96;63.20
31681;BME280;18281;51.364;9.566;2023-06-19T16:03:22;99564.66;;;26.86;61.88
31681;BME280;18281;51.364;9.566;2023-06-19T16:05:50;99564.25;;;26.89;62.20
31681;BME280;18281;51.364;9.566;2023-06-19T16:08:18;99562.41;;;26.90;62.77
31681;BME280;18281;51.364;9.566;2023-06-19T16:10:44;99570.06;;;26.86;63.57
31681;BME280;18281;51.364;9.566;2023-06-19T16:13:10;99561.97;;;26.86;64.21
31681;BME280;18281;51.364;9.566;2023-06-19T16:15:36;99563.41;;;26.82;64.17
31681;BME280;18281;51.364;9.566;2023-06-19T16:18:01;99560.72;;;26.89;64.21
31681;BME280;18281;51.364;9.566;2023-06-19T16:20:29;99558.66;;;26.84;64.42
31681;BME280;18281;51.364;9.566;2023-06-19T16:22:54;99561.53;;;26.76;64.79
31681;BME280;18281;51.364;9.566;2023-06-19T16:25:19;99561.16;;;26.86;64.33
31681;BME280;18281;51.364;9.566;2023-06-19T16:27:47;99558.28;;;26.39;64.27
31681;BME280;18281;51.364;9.566;2023-06-19T16:30:13;99557.75;;;26.64;64.40
31681;BME280;18281;51.364;9.566;2023-06-19T16:32:38;99566.50;;;26.66;64.27
31681;BME280;18281;51.364;9.566;2023-06-19T16:35:04;99561.91;;;26.66;64.45